Time;durP1;ratioP1;P1;durP2;ratioP2;P2;SDS_P1;SDS_P2;PMS_P1;PMS_P2;Temp;Humidity;BMP_temperature;BMP_pressure;BME280_temperature;BME280_humidity;BME280_pressure;Samples;Min_cycle;Max_cycle;Signal;HPM_P1;HPM_P2
2023/10/24 00:01:55;;;;;;;;;;;24.30;94.40;;;;;;5105783;28;19912;-75
2023/10/24 00:04:22;;;;;;;;;;;24.40;94.20;;;;;;5110984;28;19915;-74
2023/10/24 00:06:48;;;;;;;;;;;24.50;93.60;;;;;;5110820;28;19916;-77
2023/10/24 00:09:15;;;;;;;;;;;24.60;93.30;;;;;;5110811;28;19908;-77
2023/10/24 00:11:42;;;;;;;;;;;24.80;92.90;;;;;;5106029;28;19912;-76
2023/10/24 00:14:08;;;;;;;;;;;24.90;92.20;;;;;;5110654;28;19930;-76
2023/10/24 00:16:35;;;;;;;;;;;25.10;92.20;;;;;;5111671;28;19908;-77
2023/10/24 00:19:02;;;;;;;;;;;25.20;91.40;;;;;;5112679;28;19912;-74
2023/10/24 00:21:28;;;;;;;;;;;25.30;90.90;;;;;;5106840;28;19923;-74
2023/10/24 00:23:55;;;;;;;;;;;25.40;90.60;;;;;;5093785;28;19959;-72
2023/10/24 00:26:22;;;;;;;;;;;25.50;90.50;;;;;;5111553;28;19969;-71
2023/10/24 00:28:48;;;;;;;;;;;25.70;90.20;;;;;;5111548;28;19969;-70
2023/10/24 00:31:15;;;;;;;;;;;25.90;90.10;;;;;;5112000;28;19908;-71
2023/10/24 00:33:41;;;;;;;;;;;26.10;87.40;;;;;;5105940;28;19916;-67
2023/10/24 00:36:08;;;;;;;;;;;26.20;86.70;;;;;;5116970;28;19908;-69
2023/10/24 00:38:35;;;;;;;;;;;26.40;85.00;;;;;;5116066;28;19915;-72
2023/10/24 00:41:01;;;;;;;;;;;26.40;83.50;;;;;;5115764;28;19914;-72
2023/10/24 00:43:28;;;;;;;;;;;26.60;84.50;;;;;;5111413;28;19958;-69
2023/10/24 00:45:55;;;;;;;;;;;26.90;83.50;;;;;;5109181;28;20011;-73
2023/10/24 00:48:21;;;;;;;;;;;27.00;83.00;;;;;;5112980;28;20697;-65
2023/10/24 00:50:48;;;;;;;;;;;27.30;84.20;;;;;;5115137;28;19948;-74
2023/10/24 00:53:15;;;;;;;;;;;27.50;84.80;;;;;;5114397;28;19956;-69
2023/10/24 00:55:41;;;;;;;;;;;27.70;85.90;;;;;;5116338;28;19908;-72
2023/10/24 00:58:09;;;;;;;;;;;27.80;84.10;;;;;;5115266;28;19911;-72
2023/10/24 01:00:36;;;;;;;;;;;27.90;82.60;;;;;;5115670;28;20632;-77
2023/10/24 01:03:05;;;;;;;;;;;28.10;82.80;;;;;;5089372;28;20309;-75
2023/10/24 01:05:36;;;;;;;;;;;28.10;83.20;;;;;;5115393;28;19920;-74
2023/10/24 01:08:02;;;;;;;;;;;28.30;85.70;;;;;;5116035;28;20364;-68
2023/10/24 01:10:29;;;;;;;;;;;28.60;86.50;;;;;;5102247;28;19919;-70
2023/10/24 01:12:56;;;;;;;;;;;28.80;85.30;;;;;;5095062;28;19915;-74
2023/10/24 01:15:23;;;;;;;;;;;29.00;83.40;;;;;;5110721;28;19919;-70
2023/10/24 01:17:53;;;;;;;;;;;29.00;82.20;;;;;;5111805;28;19916;-75
2023/10/24 01:20:19;;;;;;;;;;;29.10;81.60;;;;;;5110907;28;19915;-69
2023/10/24 01:22:46;;;;;;;;;;;29.40;84.70;;;;;;5109655;28;19939;-75
2023/10/24 01:25:14;;;;;;;;;;;29.40;84.40;;;;;;5108472;28;20367;-74
2023/10/24 01:27:42;;;;;;;;;;;29.50;83.80;;;;;;5110329;28;19915;-74
2023/10/24 01:30:10;;;;;;;;;;;29.50;83.80;;;;;;5107719;28;20399;-65
2023/10/24 01:32:37;;;;;;;;;;;29.60;81.50;;;;;;5112436;28;20372;-72
2023/10/24 01:35:04;;;;;;;;;;;29.50;80.50;;;;;;5110489;28;19998;-73
2023/10/24 01:37:32;;;;;;;;;;;29.80;82.90;;;;;;5115111;28;20003;-69
2023/10/24 01:39:58;;;;;;;;;;;29.90;81.70;;;;;;5105105;28;19959;-70
2023/10/24 01:42:25;;;;;;;;;;;30.10;80.60;;;;;;5096760;28;19927;-67
2023/10/24 01:44:51;;;;;;;;;;;30.30;79.80;;;;;;5104774;28;19912;-74
2023/10/24 01:47:18;;;;;;;;;;;30.50;79.20;;;;;;5114905;28;20265;-76
2023/10/24 01:49:45;;;;;;;;;;;30.60;78.30;;;;;;5114669;28;19912;-77
2023/10/24 01:52:11;;;;;;;;;;;30.70;79.80;;;;;;5101491;28;20402;-74
2023/10/24 01:54:38;;;;;;;;;;;30.90;80.20;;;;;;5094255;28;19916;-76
2023/10/24 01:57:05;;;;;;;;;;;31.00;78.20;;;;;;5076669;28;19939;-75
2023/10/24 01:59:32;;;;;;;;;;;31.10;79.70;;;;;;5095627;28;19966;-74
2023/10/24 02:01:58;;;;;;;;;;;31.10;79.70;;;;;;5094113;28;19913;-76
2023/10/24 02:04:25;;;;;;;;;;;31.20;78.70;;;;;;5106893;28;19922;-75
2023/10/24 02:06:51;;;;;;;;;;;30.90;78.60;;;;;;5114465;28;19922;-73
2023/10/24 02:09:18;;;;;;;;;;;30.70;79.40;;;;;;5114428;28;20254;-68
2023/10/24 02:11:45;;;;;;;;;;;30.50;78.80;;;;;;5106258;28;20257;-74
2023/10/24 02:14:11;;;;;;;;;;;30.30;79.60;;;;;;5094239;28;19908;-72
2023/10/24 02:16:38;;;;;;;;;;;30.10;80.30;;;;;;5105636;28;19958;-70
2023/10/24 02:19:05;;;;;;;;;;;29.90;79.60;;;;;;5113651;28;19914;-73
2023/10/24 02:21:31;;;;;;;;;;;29.40;80.70;;;;;;5109334;28;19916;-69
2023/10/24 02:23:58;;;;;;;;;;;29.40;82.10;;;;;;5114093;28;20010;-72
2023/10/24 02:26:25;;;;;;;;;;;29.60;83.30;;;;;;5095284;28;19916;-70
2023/10/24 02:28:51;;;;;;;;;;;30.10;83.10;;;;;;5114329;28;19950;-73
2023/10/24 02:31:18;;;;;;;;;;;30.50;81.50;;;;;;5110388;28;19918;-70
2023/10/24 02:33:45;;;;;;;;;;;30.80;81.10;;;;;;5106594;28;19912;-75
2023/10/24 02:36:13;;;;;;;;;;;31.20;80.10;;;;;;5108716;28;19916;-74
2023/10/24 02:38:40;;;;;;;;;;;31.40;78.40;;;;;;5113038;28;19919;-73
2023/10/24 02:41:07;;;;;;;;;;;32.00;76.70;;;;;;5113683;28;20006;-74
2023/10/24 02:43:33;;;;;;;;;;;32.60;76.70;;;;;;5102496;28;19912;-72
2023/10/24 02:46:04;;;;;;;;;;;33.30;75.00;;;;;;5093782;28;19916;-66
2023/10/24 02:48:31;;;;;;;;;;;34.00;74.50;;;;;;5093453;28;20257;-75
2023/10/24 02:50:58;;;;;;;;;;;35.00;72.60;;;;;;5110623;28;19933;-73
2023/10/24 02:53:24;;;;;;;;;;;35.60;69.10;;;;;;5078375;28;20387;-75
2023/10/24 02:55:51;;;;;;;;;;;35.90;66.60;;;;;;5106392;28;19912;-79
2023/10/24 02:58:18;;;;;;;;;;;36.20;65.50;;;;;;5114105;28;19908;-72
2023/10/24 03:00:45;;;;;;;;;;;36.90;64.30;;;;;;5098798;28;20423;-78
2023/10/24 03:03:12;;;;;;;;;;;37.50;62.60;;;;;;5092862;28;19915;-77
2023/10/24 03:05:39;;;;;;;;;;;37.90;62.40;;;;;;5093489;28;19926;-70
2023/10/24 03:08:06;;;;;;;;;;;38.70;61.30;;;;;;5106422;28;19912;-76
2023/10/24 03:10:38;;;;;;;;;;;39.50;59.80;;;;;;5113361;28;19915;-71
2023/10/24 03:13:04;;;;;;;;;;;40.10;58.10;;;;;;5106124;28;19967;-74
2023/10/24 03:15:32;;;;;;;;;;;39.80;57.10;;;;;;5093413;28;19912;-72
2023/10/24 03:17:59;;;;;;;;;;;39.60;58.30;;;;;;5103123;28;19919;-73
2023/10/24 03:20:26;;;;;;;;;;;39.60;56.80;;;;;;5112439;28;19911;-72
2023/10/24 03:22:53;;;;;;;;;;;39.70;56.90;;;;;;5107665;28;20325;-74
2023/10/24 03:25:20;;;;;;;;;;;40.10;55.80;;;;;;5112967;28;19912;-68
2023/10/24 03:27:46;;;;;;;;;;;40.00;56.40;;;;;;5104204;28;19919;-75
2023/10/24 03:30:13;;;;;;;;;;;40.20;56.50;;;;;;5102801;28;19912;-72
2023/10/24 03:32:40;;;;;;;;;;;40.50;56.30;;;;;;5111450;28;19996;-70
2023/10/24 03:35:07;;;;;;;;;;;40.40;56.00;;;;;;5112318;28;19908;-74
2023/10/24 03:37:34;;;;;;;;;;;40.10;56.60;;;;;;5113261;28;19907;-75
2023/10/24 03:40:00;;;;;;;;;;;39.60;57.00;;;;;;5103831;28;19912;-75
2023/10/24 03:42:27;;;;;;;;;;;38.40;58.90;;;;;;5095929;28;19915;-65
2023/10/24 03:44:53;;;;;;;;;;;38.70;58.70;;;;;;5095765;28;19955;-74
2023/10/24 03:47:20;;;;;;;;;;;39.50;58.80;;;;;;5091026;28;19912;-72
2023/10/24 03:49:47;;;;;;;;;;;40.00;58.10;;;;;;5091719;28;19957;-67
2023/10/24 03:52:14;;;;;;;;;;;39.80;58.20;;;;;;5097860;28;19919;-73
2023/10/24 03:54:40;;;;;;;;;;;40.00;58.50;;;;;;5102264;28;19912;-64
2023/10/24 03:57:07;;;;;;;;;;;40.40;58.30;;;;;;5109244;28;19938;-67
2023/10/24 03:59:34;;;;;;;;;;;40.50;58.00;;;;;;5101543;28;19959;-66
2023/10/24 04:02:00;;;;;;;;;;;41.00;58.10;;;;;;5098918;28;19916;-74
2023/10/24 04:04:29;;;;;;;;;;;41.00;57.90;;;;;;5098597;28;19972;-71
2023/10/24 04:06:56;;;;;;;;;;;40.90;58.30;;;;;;5099230;28;19919;-66
2023/10/24 04:09:23;;;;;;;;;;;40.90;59.30;;;;;;5108743;28;20035;-69
2023/10/24 04:11:50;;;;;;;;;;;41.30;57.60;;;;;;5091646;28;19915;-68
2023/10/24 04:14:16;;;;;;;;;;;41.50;57.80;;;;;;5101390;28;19935;-69
2023/10/24 04:16:43;;;;;;;;;;;41.70;58.20;;;;;;5111870;28;19919;-64
2023/10/24 04:19:10;;;;;;;;;;;41.40;58.60;;;;;;5105965;28;19912;-71
2023/10/24 04:21:37;;;;;;;;;;;41.60;58.20;;;;;;5110452;28;20413;-68
2023/10/24 04:24:04;;;;;;;;;;;40.40;58.30;;;;;;5109763;28;19959;-70
2023/10/24 04:26:30;;;;;;;;;;;39.00;59.40;;;;;;5110114;28;20364;-71
2023/10/24 04:28:57;;;;;;;;;;;39.00;60.70;;;;;;5111964;28;19907;-74
2023/10/24 04:31:23;;;;;;;;;;;38.00;61.80;;;;;;5110838;28;20360;-71
2023/10/24 04:33:50;;;;;;;;;;;38.60;62.00;;;;;;5111088;28;19915;-71
2023/10/24 04:36:17;;;;;;;;;;;39.50;60.70;;;;;;5107820;28;20272;-67
2023/10/24 04:38:44;;;;;;;;;;;39.00;61.30;;;;;;5102965;28;19916;-70
2023/10/24 04:41:10;;;;;;;;;;;39.00;61.50;;;;;;5107366;28;20382;-70
2023/10/24 04:43:37;;;;;;;;;;;39.20;61.70;;;;;;5105070;28;19943;-71
2023/10/24 04:46:03;;;;;;;;;;;38.80;61.80;;;;;;5109893;28;19920;-75
2023/10/24 04:48:30;;;;;;;;;;;39.10;61.40;;;;;;5108156;28;19970;-69
2023/10/24 04:50:57;;;;;;;;;;;38.80;62.30;;;;;;5107632;28;19934;-69
2023/10/24 04:53:24;;;;;;;;;;;40.10;61.00;;;;;;5110507;28;19959;-74
2023/10/24 04:55:50;;;;;;;;;;;40.30;60.70;;;;;;5109728;28;19973;-71
2023/10/24 04:58:17;;;;;;;;;;;39.50;61.40;;;;;;5092057;28;20304;-71
2023/10/24 05:00:44;;;;;;;;;;;39.10;62.80;;;;;;5109466;28;19916;-67
2023/10/24 05:03:10;;;;;;;;;;;39.10;62.30;;;;;;5102391;28;19912;-69
2023/10/24 05:05:37;;;;;;;;;;;39.30;62.20;;;;;;5111544;28;19915;-71
2023/10/24 05:08:07;;;;;;;;;;;38.40;62.60;;;;;;5131513;28;19933;-71
2023/10/24 05:10:34;;;;;;;;;;;37.60;62.70;;;;;;5117370;28;20367;-71
2023/10/24 05:13:00;;;;;;;;;;;37.10;64.30;;;;;;5092760;28;20368;-72
2023/10/24 05:15:27;;;;;;;;;;;36.10;65.10;;;;;;5106734;28;19913;-68
2023/10/24 05:17:54;;;;;;;;;;;35.90;65.90;;;;;;5095088;28;20385;-70
2023/10/24 05:20:21;;;;;;;;;;;35.80;65.90;;;;;;5105012;28;19911;-71
2023/10/24 05:22:47;;;;;;;;;;;36.30;65.40;;;;;;5113637;28;19916;-76
2023/10/24 05:25:15;;;;;;;;;;;36.50;65.80;;;;;;5113482;28;20352;-73
2023/10/24 05:27:42;;;;;;;;;;;35.50;65.70;;;;;;5110680;28;20489;-67
2023/10/24 05:30:11;;;;;;;;;;;35.80;67.30;;;;;;5114225;28;19919;-70
2023/10/24 05:32:38;;;;;;;;;;;36.80;65.70;;;;;;5112817;28;19938;-69
2023/10/24 05:35:04;;;;;;;;;;;36.90;65.40;;;;;;5105526;28;20471;-69
2023/10/24 05:37:31;;;;;;;;;;;37.80;64.80;;;;;;5112507;28;19973;-72
2023/10/24 05:39:58;;;;;;;;;;;38.00;63.40;;;;;;5113736;28;19914;-73
2023/10/24 05:42:24;;;;;;;;;;;37.40;64.70;;;;;;5113388;28;19995;-71
2023/10/24 05:44:51;;;;;;;;;;;38.00;64.30;;;;;;5110796;28;19939;-68
2023/10/24 05:47:17;;;;;;;;;;;37.20;64.60;;;;;;5112856;28;19919;-69
2023/10/24 05:49:44;;;;;;;;;;;37.00;65.30;;;;;;5109607;28;19966;-71
2023/10/24 05:52:11;;;;;;;;;;;36.80;65.60;;;;;;5094574;28;19916;-74
2023/10/24 05:54:37;;;;;;;;;;;36.30;67.30;;;;;;5095676;28;19916;-65
2023/10/24 05:57:04;;;;;;;;;;;35.40;67.40;;;;;;5113208;28;19914;-74
2023/10/24 05:59:32;;;;;;;;;;;34.70;68.90;;;;;;5111304;28;20646;-74
2023/10/24 06:01:59;;;;;;;;;;;34.00;71.20;;;;;;5113018;28;20057;-75
2023/10/24 06:04:26;;;;;;;;;;;33.80;70.80;;;;;;5114352;28;19977;-73
2023/10/24 06:06:53;;;;;;;;;;;33.30;72.60;;;;;;5113573;28;19920;-67
2023/10/24 06:09:20;;;;;;;;;;;32.80;73.00;;;;;;5113486;28;19926;-67
2023/10/24 06:11:47;;;;;;;;;;;32.50;74.10;;;;;;5113554;28;19914;-67
2023/10/24 06:14:13;;;;;;;;;;;31.90;76.20;;;;;;5105806;28;19912;-69
2023/10/24 06:16:40;;;;;;;;;;;32.20;76.10;;;;;;5093983;28;19970;-72
2023/10/24 06:19:07;;;;;;;;;;;32.60;75.30;;;;;;5094460;28;19912;-72
2023/10/24 06:21:33;;;;;;;;;;;33.10;74.70;;;;;;5094370;28;20555;-73
2023/10/24 06:24:00;;;;;;;;;;;33.20;74.20;;;;;;5100439;28;19918;-67
2023/10/24 06:26:27;;;;;;;;;;;33.40;74.70;;;;;;5096829;28;20015;-72
2023/10/24 06:28:54;;;;;;;;;;;33.40;74.60;;;;;;5095819;28;19919;-72
2023/10/24 06:31:21;;;;;;;;;;;33.40;74.00;;;;;;5109968;28;19911;-72
2023/10/24 06:33:48;;;;;;;;;;;33.20;74.60;;;;;;5101840;28;19923;-67
2023/10/24 06:36:14;;;;;;;;;;;33.00;75.70;;;;;;5105782;28;19915;-72
2023/10/24 06:38:41;;;;;;;;;;;33.50;74.90;;;;;;5114274;28;20387;-67
2023/10/24 06:41:08;;;;;;;;;;;34.10;73.90;;;;;;5096131;28;19908;-71
2023/10/24 06:43:35;;;;;;;;;;;33.40;74.60;;;;;;5114669;28;19915;-73
2023/10/24 06:46:04;;;;;;;;;;;32.50;76.20;;;;;;5114359;28;19915;-74
2023/10/24 06:48:31;;;;;;;;;;;31.80;78.40;;;;;;5100336;28;19934;-74
2023/10/24 06:50:58;;;;;;;;;;;31.20;80.30;;;;;;5093310;28;19912;-74
2023/10/24 06:53:25;;;;;;;;;;;30.60;81.60;;;;;;5093737;28;19922;-72
2023/10/24 06:55:58;;;;;;;;;;;29.80;83.60;;;;;;5093761;28;19912;-74
2023/10/24 06:58:24;;;;;;;;;;;29.40;85.50;;;;;;5093707;28;19916;-73
2023/10/24 07:00:51;;;;;;;;;;;28.80;86.90;;;;;;5093424;28;19912;-71
2023/10/24 07:03:17;;;;;;;;;;;27.80;90.10;;;;;;5093950;28;19908;-70
2023/10/24 07:05:49;;;;;;;;;;;27.30;91.60;;;;;;5097153;28;19961;-71
2023/10/24 07:08:15;;;;;;;;;;;26.90;93.00;;;;;;5102506;28;20316;-73
2023/10/24 07:10:42;;;;;;;;;;;26.60;95.10;;;;;;5113731;28;19908;-73
2023/10/24 07:13:11;;;;;;;;;;;26.40;96.40;;;;;;5108951;28;20314;-69
2023/10/24 07:15:38;;;;;;;;;;;26.30;97.50;;;;;;5113556;28;19947;-74
2023/10/24 07:18:05;;;;;;;;;;;26.50;98.00;;;;;;5113516;28;19960;-71
2023/10/24 07:20:36;;;;;;;;;;;26.30;98.90;;;;;;5113102;28;20007;-75
2023/10/24 07:23:03;;;;;;;;;;;26.00;99.90;;;;;;5112905;28;19911;-69
2023/10/24 07:25:30;;;;;;;;;;;25.80;99.90;;;;;;5112583;28;20422;-72
2023/10/24 07:27:57;;;;;;;;;;;25.80;99.90;;;;;;5113534;28;20345;-74
2023/10/24 07:30:24;;;;;;;;;;;25.70;99.90;;;;;;5113477;28;19998;-70
2023/10/24 07:32:54;;;;;;;;;;;25.50;99.90;;;;;;5109795;28;19912;-74
2023/10/24 07:35:23;;;;;;;;;;;25.50;99.90;;;;;;5100267;28;19919;-70
2023/10/24 07:37:50;;;;;;;;;;;25.30;99.90;;;;;;5097561;28;19912;-69
2023/10/24 07:40:17;;;;;;;;;;;25.30;99.90;;;;;;5112671;28;19924;-71
2023/10/24 07:42:43;;;;;;;;;;;25.10;99.90;;;;;;5101454;28;19994;-68
2023/10/24 07:45:11;;;;;;;;;;;25.00;99.90;;;;;;5092532;28;19919;-65
2023/10/24 07:47:38;;;;;;;;;;;24.90;99.90;;;;;;5095439;27;20288;-71
2023/10/24 07:50:05;;;;;;;;;;;24.90;99.90;;;;;;5112997;28;19979;-68
2023/10/24 07:52:31;;;;;;;;;;;24.80;99.90;;;;;;5110255;28;20330;-72
2023/10/24 07:54:58;;;;;;;;;;;24.70;99.90;;;;;;5110206;28;19922;-71
2023/10/24 07:57:25;;;;;;;;;;;24.60;99.90;;;;;;5107568;28;19904;-68
2023/10/24 07:59:51;;;;;;;;;;;24.60;99.90;;;;;;5109272;28;19908;-71
2023/10/24 08:02:18;;;;;;;;;;;24.60;99.90;;;;;;5110212;28;19916;-69
2023/10/24 08:04:44;;;;;;;;;;;24.60;99.90;;;;;;5107759;28;19915;-71
2023/10/24 08:07:11;;;;;;;;;;;24.60;99.90;;;;;;5110034;28;20376;-72
2023/10/24 08:09:38;;;;;;;;;;;24.50;99.90;;;;;;5112135;28;19966;-71
2023/10/24 08:12:04;;;;;;;;;;;24.50;99.90;;;;;;5109045;28;20314;-75
2023/10/24 08:14:31;;;;;;;;;;;24.30;99.90;;;;;;5112251;28;19945;-75
2023/10/24 08:16:58;;;;;;;;;;;24.20;99.90;;;;;;5107582;28;19912;-73
2023/10/24 08:19:24;;;;;;;;;;;24.20;99.90;;;;;;5112013;28;19912;-71
2023/10/24 08:21:51;;;;;;;;;;;24.10;99.90;;;;;;5111751;28;20397;-68
2023/10/24 08:24:18;;;;;;;;;;;24.00;99.90;;;;;;5109013;28;19920;-68
2023/10/24 08:26:44;;;;;;;;;;;24.00;99.90;;;;;;5112108;28;20382;-70
2023/10/24 08:29:11;;;;;;;;;;;23.90;99.90;;;;;;5112249;28;19916;-71
2023/10/24 08:31:37;;;;;;;;;;;23.90;99.90;;;;;;5105686;28;20364;-71
2023/10/24 08:34:04;;;;;;;;;;;23.80;99.90;;;;;;5111967;28;19968;-70
2023/10/24 08:36:31;;;;;;;;;;;23.90;99.90;;;;;;5094000;28;19916;-67
2023/10/24 08:38:58;;;;;;;;;;;23.80;99.90;;;;;;5092462;28;20522;-68
2023/10/24 08:41:25;;;;;;;;;;;23.70;99.90;;;;;;5107678;28;19915;-73
2023/10/24 08:43:51;;;;;;;;;;;23.70;99.90;;;;;;5112122;28;19912;-68
2023/10/24 08:46:18;;;;;;;;;;;23.60;99.90;;;;;;5111568;28;19977;-66
2023/10/24 08:48:45;;;;;;;;;;;23.60;99.90;;;;;;5111941;28;19934;-68
2023/10/24 08:51:12;;;;;;;;;;;23.60;99.90;;;;;;5111351;28;20006;-68
2023/10/24 08:53:38;;;;;;;;;;;23.70;99.90;;;;;;5113315;28;19912;-69
2023/10/24 08:56:09;;;;;;;;;;;23.60;99.90;;;;;;5115760;28;19927;-68
2023/10/24 08:58:37;;;;;;;;;;;23.60;99.90;;;;;;5116055;28;19908;-68
2023/10/24 09:01:04;;;;;;;;;;;23.50;99.90;;;;;;5115634;28;19908;-69
2023/10/24 09:03:31;;;;;;;;;;;23.40;99.90;;;;;;5115305;28;19915;-68
2023/10/24 09:05:58;;;;;;;;;;;23.30;99.90;;;;;;5115001;28;19934;-68
2023/10/24 09:08:25;;;;;;;;;;;23.30;99.90;;;;;;5116202;28;20284;-69
2023/10/24 09:10:52;;;;;;;;;;;23.20;99.90;;;;;;5116215;28;20006;-70
2023/10/24 09:13:18;;;;;;;;;;;23.20;99.90;;;;;;5097552;28;19911;-67
2023/10/24 09:16:04;;;;;;;;;;;23.20;99.90;;;;;;5111326;28;19916;-70
2023/10/24 09:18:30;;;;;;;;;;;23.10;99.90;;;;;;5096982;28;20332;-68
2023/10/24 09:20:57;;;;;;;;;;;23.10;99.90;;;;;;5116248;28;19908;-69
2023/10/24 09:23:24;;;;;;;;;;;23.10;99.90;;;;;;5115922;28;20003;-71
2023/10/24 09:25:50;;;;;;;;;;;23.00;99.90;;;;;;5115165;28;20400;-67
2023/10/24 09:28:18;;;;;;;;;;;23.00;99.90;;;;;;5113966;28;20387;-69
2023/10/24 09:30:45;;;;;;;;;;;22.90;99.90;;;;;;5110926;28;19964;-70
2023/10/24 09:33:12;;;;;;;;;;;22.90;99.90;;;;;;5111846;28;19946;-71
2023/10/24 09:35:38;;;;;;;;;;;22.90;99.90;;;;;;5115332;28;19908;-66
2023/10/24 09:38:08;;;;;;;;;;;23.00;99.90;;;;;;5114249;28;19919;-69
2023/10/24 09:40:36;;;;;;;;;;;23.00;99.90;;;;;;5111964;28;19915;-72
2023/10/24 09:43:12;;;;;;;;;;;23.00;99.90;;;;;;5105500;28;20007;-69
2023/10/24 09:45:43;;;;;;;;;;;23.00;99.90;;;;;;5105291;28;19926;-68
2023/10/24 09:48:11;;;;;;;;;;;23.10;99.90;;;;;;5114892;28;20006;-68
2023/10/24 09:50:39;;;;;;;;;;;23.10;99.90;;;;;;5114962;28;19908;-67
2023/10/24 09:53:06;;;;;;;;;;;23.00;99.90;;;;;;5110317;28;20015;-69
2023/10/24 09:55:35;;;;;;;;;;;23.00;99.90;;;;;;5114479;28;19908;-69
2023/10/24 09:58:03;;;;;;;;;;;23.00;99.90;;;;;;5097086;28;19912;-68
2023/10/24 10:00:30;;;;;;;;;;;23.00;99.90;;;;;;5115071;28;19923;-68
2023/10/24 10:02:58;;;;;;;;;;;23.00;99.90;;;;;;5113018;28;20271;-71
2023/10/24 10:05:28;;;;;;;;;;;23.00;99.90;;;;;;5109489;28;19943;-68
2023/10/24 10:07:56;;;;;;;;;;;23.00;99.90;;;;;;5111095;28;20352;-72
2023/10/24 10:10:24;;;;;;;;;;;23.00;99.90;;;;;;5111045;28;20276;-67
2023/10/24 10:12:59;;;;;;;;;;;23.00;99.90;;;;;;5113536;28;19914;-69
2023/10/24 10:15:26;;;;;;;;;;;22.90;99.90;;;;;;5110905;28;19919;-73
2023/10/24 10:18:11;;;;;;;;;;;22.90;99.90;;;;;;5112999;28;19908;-69
2023/10/24 10:20:37;;;;;;;;;;;22.90;99.90;;;;;;5112604;28;19961;-68
2023/10/24 10:23:04;;;;;;;;;;;22.80;99.90;;;;;;5112914;28;19908;-72
2023/10/24 10:25:52;;;;;;;;;;;22.80;99.90;;;;;;5111489;28;19977;-68
2023/10/24 10:28:21;;;;;;;;;;;22.80;99.90;;;;;;5112049;28;19916;-70
2023/10/24 10:31:06;;;;;;;;;;;22.70;99.90;;;;;;5111705;28;20015;-69
2023/10/24 10:33:33;;;;;;;;;;;22.70;99.90;;;;;;5111156;28;20329;-69
2023/10/24 10:36:04;;;;;;;;;;;22.70;99.90;;;;;;5112397;28;19912;-68
2023/10/24 10:38:41;;;;;;;;;;;22.70;99.90;;;;;;5113068;28;19915;-68
2023/10/24 10:41:23;;;;;;;;;;;22.70;99.90;;;;;;5113097;28;19920;-68
2023/10/24 10:43:50;;;;;;;;;;;22.60;99.90;;;;;;5111503;28;19918;-71
2023/10/24 10:46:17;;;;;;;;;;;22.60;99.90;;;;;;5112901;28;19934;-72
2023/10/24 10:48:44;;;;;;;;;;;22.50;99.90;;;;;;5112696;28;20615;-71
2023/10/24 10:51:15;;;;;;;;;;;22.50;99.90;;;;;;5111873;28;19912;-70
2023/10/24 10:53:47;;;;;;;;;;;22.50;99.90;;;;;;5109529;28;19908;-73
2023/10/24 10:56:25;;;;;;;;;;;22.40;99.90;;;;;;5112308;28;19908;-73
2023/10/24 10:58:55;;;;;;;;;;;22.40;99.90;;;;;;5107338;28;19927;-72
2023/10/24 11:01:21;;;;;;;;;;;22.40;99.90;;;;;;5107911;28;19912;-71
2023/10/24 11:03:49;;;;;;;;;;;22.30;99.90;;;;;;5110454;28;20414;-71
2023/10/24 11:06:16;;;;;;;;;;;22.30;99.90;;;;;;5112452;28;19959;-73
2023/10/24 11:09:09;;;;;;;;;;;22.30;99.90;;;;;;5108551;28;19908;-72
2023/10/24 11:11:40;;;;;;;;;;;22.20;99.90;;;;;;5107924;28;21262;-71
2023/10/24 11:14:17;;;;;;;;;;;22.20;99.90;;;;;;5090392;28;19974;-71
2023/10/24 11:16:44;;;;;;;;;;;22.10;99.90;;;;;;5106234;28;19923;-71
2023/10/24 11:19:21;;;;;;;;;;;22.10;99.90;;;;;;5109074;28;19911;-69
2023/10/24 11:21:48;;;;;;;;;;;22.00;99.90;;;;;;5107483;28;19915;-68
2023/10/24 11:24:20;;;;;;;;;;;22.00;99.90;;;;;;5111236;28;19912;-69
2023/10/24 11:26:47;;;;;;;;;;;22.00;99.90;;;;;;5111435;28;20018;-71
2023/10/24 11:29:15;;;;;;;;;;;21.90;99.90;;;;;;5093978;28;19939;-72
2023/10/24 11:31:44;;;;;;;;;;;21.80;99.90;;;;;;5109257;28;19908;-69
2023/10/24 11:34:13;;;;;;;;;;;21.80;99.90;;;;;;5112000;28;19911;-71
2023/10/24 11:36:45;;;;;;;;;;;21.80;99.90;;;;;;5110788;28;20010;-69
2023/10/24 11:39:15;;;;;;;;;;;21.80;99.90;;;;;;5111654;28;19908;-69
2023/10/24 11:41:45;;;;;;;;;;;21.70;99.90;;;;;;5108842;28;19960;-69
2023/10/24 11:44:17;;;;;;;;;;;21.70;99.90;;;;;;5111519;28;19908;-69
2023/10/24 11:46:45;;;;;;;;;;;21.60;99.90;;;;;;5108374;28;19919;-68
2023/10/24 11:49:12;;;;;;;;;;;21.60;99.90;;;;;;5110690;28;19972;-68
2023/10/24 11:51:38;;;;;;;;;;;21.60;99.90;;;;;;5109768;28;19964;-68
2023/10/24 11:54:06;;;;;;;;;;;21.60;99.90;;;;;;5108521;28;19908;-72
2023/10/24 11:56:33;;;;;;;;;;;21.60;99.90;;;;;;5090728;28;19935;-69
2023/10/24 11:59:01;;;;;;;;;;;21.50;99.90;;;;;;5111741;28;20280;-70
2023/10/24 12:01:33;;;;;;;;;;;21.50;99.90;;;;;;5110385;28;19996;-70
2023/10/24 12:04:00;;;;;;;;;;;21.40;99.90;;;;;;5111514;28;19916;-68
2023/10/24 12:06:27;;;;;;;;;;;21.40;99.90;;;;;;5111707;28;19965;-71
2023/10/24 12:08:55;;;;;;;;;;;21.40;99.90;;;;;;5113115;28;20318;-69
2023/10/24 12:11:24;;;;;;;;;;;21.30;99.90;;;;;;5112076;28;19908;-73
2023/10/24 12:13:51;;;;;;;;;;;21.40;99.90;;;;;;5112162;28;20878;-73
2023/10/24 12:16:17;;;;;;;;;;;21.30;99.90;;;;;;5113245;28;19995;-71
2023/10/24 12:18:44;;;;;;;;;;;21.30;99.90;;;;;;5112943;28;19908;-70
2023/10/24 12:21:11;;;;;;;;;;;21.20;99.90;;;;;;5111757;28;19908;-66
2023/10/24 12:23:38;;;;;;;;;;;21.20;99.90;;;;;;5112627;28;19938;-70
2023/10/24 12:26:05;;;;;;;;;;;21.20;99.90;;;;;;5105830;28;19916;-73
2023/10/24 12:28:36;;;;;;;;;;;21.20;99.90;;;;;;5108449;28;19913;-72
2023/10/24 12:31:03;;;;;;;;;;;21.20;99.90;;;;;;5078400;28;20360;-71
2023/10/24 12:33:30;;;;;;;;;;;21.20;99.90;;;;;;5096818;28;19909;-72
2023/10/24 12:35:57;;;;;;;;;;;21.10;99.90;;;;;;5096582;28;19938;-71
2023/10/24 12:38:23;;;;;;;;;;;21.00;99.90;;;;;;5114849;28;19915;-73
2023/10/24 12:40:50;;;;;;;;;;;21.00;99.90;;;;;;5116119;28;19912;-74
2023/10/24 12:43:17;;;;;;;;;;;21.00;99.90;;;;;;5116399;28;19919;-73
2023/10/24 12:45:43;;;;;;;;;;;21.00;99.90;;;;;;5116628;28;20566;-71
2023/10/24 12:48:14;;;;;;;;;;;21.00;99.90;;;;;;5116615;28;19931;-71
2023/10/24 12:50:41;;;;;;;;;;;20.90;99.90;;;;;;5096964;28;19912;-73
2023/10/24 12:53:07;;;;;;;;;;;20.90;99.90;;;;;;5096179;28;19915;-72
2023/10/24 12:55:34;;;;;;;;;;;20.90;99.90;;;;;;5096192;28;19908;-72
2023/10/24 12:58:01;;;;;;;;;;;20.90;99.90;;;;;;5096257;28;19993;-72
2023/10/24 13:00:28;;;;;;;;;;;20.80;99.90;;;;;;5096304;28;19912;-72
2023/10/24 13:02:54;;;;;;;;;;;20.80;99.90;;;;;;5095994;28;20284;-72
2023/10/24 13:05:21;;;;;;;;;;;20.80;99.90;;;;;;5096022;28;20431;-72
2023/10/24 13:07:48;;;;;;;;;;;20.80;99.90;;;;;;5096076;28;19912;-71
2023/10/24 13:10:15;;;;;;;;;;;20.80;99.90;;;;;;5115686;28;19912;-70
2023/10/24 13:12:42;;;;;;;;;;;20.80;99.90;;;;;;5109189;28;19912;-68
2023/10/24 13:15:09;;;;;;;;;;;20.80;99.90;;;;;;5095803;28;20313;-71
2023/10/24 13:17:35;;;;;;;;;;;20.80;99.90;;;;;;5095102;28;19908;-68
2023/10/24 13:20:02;;;;;;;;;;;20.80;99.90;;;;;;5108010;28;20356;-73
2023/10/24 13:22:29;;;;;;;;;;;20.70;99.90;;;;;;5116109;28;19908;-72
2023/10/24 13:24:56;;;;;;;;;;;20.70;99.90;;;;;;5115784;28;19981;-70
2023/10/24 13:27:23;;;;;;;;;;;20.70;99.90;;;;;;5115895;28;19974;-72
2023/10/24 13:29:50;;;;;;;;;;;20.70;99.90;;;;;;5116139;28;19925;-69
2023/10/24 13:32:16;;;;;;;;;;;20.60;99.90;;;;;;5115942;28;19998;-71
2023/10/24 13:34:43;;;;;;;;;;;20.60;99.90;;;;;;5115919;28;19958;-70
2023/10/24 13:37:09;;;;;;;;;;;20.60;99.90;;;;;;5115500;28;20336;-70
2023/10/24 13:39:36;;;;;;;;;;;20.50;99.90;;;;;;5113615;28;20002;-68
2023/10/24 13:42:04;;;;;;;;;;;20.40;99.90;;;;;;5115344;28;19908;-69
2023/10/24 13:44:30;;;;;;;;;;;20.40;99.90;;;;;;5097584;28;19946;-72
2023/10/24 13:46:57;;;;;;;;;;;20.40;99.90;;;;;;5115376;28;19951;-66
2023/10/24 13:49:24;;;;;;;;;;;20.40;99.90;;;;;;5113710;28;19920;-68
2023/10/24 13:51:50;;;;;;;;;;;20.40;99.90;;;;;;5115440;28;19908;-72
2023/10/24 13:54:17;;;;;;;;;;;20.30;99.90;;;;;;5115799;28;19908;-73
2023/10/24 13:56:44;;;;;;;;;;;20.20;99.90;;;;;;5115650;28;20381;-74
2023/10/24 13:59:11;;;;;;;;;;;20.30;99.90;;;;;;5115209;28;19911;-67
2023/10/24 14:01:39;;;;;;;;;;;20.30;99.90;;;;;;5115616;28;19931;-71
2023/10/24 14:04:05;;;;;;;;;;;20.20;99.90;;;;;;5115531;28;19958;-70
2023/10/24 14:06:32;;;;;;;;;;;20.20;99.90;;;;;;5115254;28;19916;-69
2023/10/24 14:08:59;;;;;;;;;;;20.20;99.90;;;;;;5114756;28;19916;-70
2023/10/24 14:11:25;;;;;;;;;;;20.20;99.90;;;;;;5114909;28;19953;-68
2023/10/24 14:13:52;;;;;;;;;;;20.20;99.90;;;;;;5115300;28;20372;-71
2023/10/24 14:16:19;;;;;;;;;;;20.20;99.90;;;;;;5115172;28;19908;-72
2023/10/24 14:18:45;;;;;;;;;;;20.10;99.90;;;;;;5115424;28;19960;-71